createdAt,value
2018-09-18T00:01:09.403Z,17.80
2018-09-18T00:03:36.447Z,17.60
2018-09-18T00:06:03.636Z,17.60
2018-09-18T00:10:57.796Z,17.50
2018-09-18T00:13:24.777Z,17.40
2018-09-18T00:18:18.920Z,17.60
2018-09-18T00:20:45.923Z,17.50
2018-09-18T00:23:12.955Z,17.50
2018-09-18T00:25:39.993Z,17.60
2018-09-18T00:30:45.531Z,17.60
2018-09-18T00:33:12.535Z,17.60
2018-09-18T00:35:39.541Z,17.70
2018-09-18T00:38:06.598Z,17.60
2018-09-18T00:40:33.598Z,17.50
2018-09-18T00:43:00.602Z,17.50
2018-09-18T00:45:28.612Z,17.40
2018-09-18T00:47:55.628Z,17.40
2018-09-18T00:50:22.630Z,17.40
2018-09-18T00:52:49.681Z,17.30
2018-09-18T00:55:16.703Z,17.20
2018-09-18T00:57:44.572Z,17.10
2018-09-18T01:00:11.628Z,17.30
2018-09-18T01:02:38.617Z,17.30
2018-09-18T01:05:05.640Z,17.30
2018-09-18T01:10:00.618Z,17.30
2018-09-18T01:12:27.646Z,17.40
2018-09-18T01:14:54.782Z,17.20
2018-09-18T01:17:22.623Z,17.20
2018-09-18T01:19:50.374Z,17.20
2018-09-18T01:24:44.513Z,16.80
2018-09-18T01:27:11.542Z,16.90
2018-09-18T01:29:39.553Z,16.80
2018-09-18T01:32:06.577Z,16.70
2018-09-18T01:34:34.409Z,16.70
2018-09-18T01:37:02.294Z,16.60
2018-09-18T01:39:29.308Z,16.60
2018-09-18T01:41:56.344Z,16.50
2018-09-18T01:44:23.389Z,16.60
2018-09-18T01:51:56.908Z,16.80
2018-09-18T01:54:24.859Z,16.80
2018-09-18T01:56:51.879Z,16.60
2018-09-18T01:59:18.903Z,16.60
2018-09-18T02:01:45.916Z,16.50
2018-09-18T02:04:12.918Z,16.60
2018-09-18T02:06:39.986Z,16.50
2018-09-18T02:09:07.003Z,16.40
2018-09-18T02:11:34.025Z,16.30
2018-09-18T02:14:01.072Z,16.40
2018-09-18T02:16:28.110Z,16.30
2018-09-18T02:18:55.124Z,16.40
2018-09-18T02:21:22.175Z,16.50
2018-09-18T02:23:49.187Z,16.50
2018-09-18T02:26:16.210Z,16.50
2018-09-18T02:28:43.271Z,16.50
2018-09-18T02:31:10.272Z,16.50
2018-09-18T02:36:04.395Z,16.30
2018-09-18T02:38:31.408Z,16.10
2018-09-18T02:43:25.557Z,16.00
2018-09-18T02:45:52.568Z,16.00
2018-09-18T02:48:20.426Z,15.90
2018-09-18T02:50:47.483Z,15.90
2018-09-18T02:53:14.489Z,15.70
2018-09-18T02:55:41.503Z,15.70
2018-09-18T02:58:08.541Z,15.70
2018-09-18T03:00:37.012Z,15.70
2018-09-18T03:03:04.040Z,15.70
2018-09-18T03:05:31.928Z,15.70
2018-09-18T03:07:58.939Z,15.70
2018-09-18T03:13:06.472Z,15.80
2018-09-18T03:15:34.365Z,16.00
2018-09-18T03:18:01.751Z,16.00
2018-09-18T03:22:55.903Z,16.10
2018-09-18T03:25:24.055Z,16.00
2018-09-18T03:27:51.278Z,16.00
2018-09-18T03:30:18.945Z,16.00
2018-09-18T03:32:47.317Z,16.00
2018-09-18T03:35:14.379Z,15.90
2018-09-18T03:37:42.335Z,15.90
2018-09-18T03:42:37.448Z,16.00
2018-09-18T03:45:04.469Z,16.00
2018-09-18T03:47:32.433Z,15.90
2018-09-18T03:49:59.510Z,15.70
2018-09-18T03:52:27.494Z,15.50
2018-09-18T03:54:55.455Z,15.60
2018-09-18T03:57:22.628Z,15.70
2018-09-18T03:59:49.550Z,15.80
2018-09-18T04:02:16.577Z,15.70
2018-09-18T04:09:37.835Z,15.60
2018-09-18T04:12:04.877Z,15.50
2018-09-18T04:14:32.836Z,15.50
2018-09-18T04:16:59.864Z,15.50
2018-09-18T04:19:26.934Z,15.50
2018-09-18T04:21:54.004Z,15.40
2018-09-18T04:24:21.030Z,15.50
2018-09-18T04:26:48.879Z,15.60
2018-09-18T04:32:02.010Z,15.70
2018-09-18T04:34:29.015Z,15.80
2018-09-18T04:36:56.015Z,15.80
2018-09-18T04:41:50.986Z,15.90
2018-09-18T04:44:18.000Z,15.80
2018-09-18T04:46:45.057Z,15.80
2018-09-18T04:49:12.083Z,15.90
2018-09-18T04:51:39.109Z,15.90
2018-09-18T04:54:06.177Z,15.90
2018-09-18T04:56:33.183Z,15.90
2018-09-18T05:01:27.331Z,15.80
2018-09-18T05:03:54.329Z,15.60
2018-09-18T05:08:48.526Z,15.60
2018-09-18T05:11:16.248Z,15.70
2018-09-18T05:13:43.837Z,15.80
2018-09-18T05:16:10.706Z,15.90
2018-09-18T05:18:37.741Z,15.90
2018-09-18T05:21:04.787Z,16.00
2018-09-18T05:23:31.862Z,16.00
2018-09-18T05:25:58.866Z,16.00
2018-09-18T05:28:25.903Z,15.90
2018-09-18T05:30:52.995Z,15.90
2018-09-18T05:33:20.033Z,15.80
2018-09-18T05:35:47.056Z,15.80
2018-09-18T05:38:14.278Z,15.80
2018-09-18T05:40:41.313Z,15.80
2018-09-18T05:43:08.337Z,15.90
2018-09-18T05:45:35.398Z,15.90
2018-09-18T05:48:03.637Z,15.90
2018-09-18T05:53:09.980Z,16.30
2018-09-18T05:55:37.008Z,16.60
2018-09-18T05:58:04.878Z,16.70
2018-09-18T06:00:31.943Z,16.80
2018-09-18T06:02:59.866Z,17.00
2018-09-18T06:05:27.823Z,17.00
2018-09-18T06:07:54.878Z,16.80
2018-09-18T06:10:22.196Z,16.80
2018-09-18T06:12:49.792Z,17.00
2018-09-18T06:15:16.833Z,16.90
2018-09-18T06:17:43.932Z,17.10
2018-09-18T06:20:10.932Z,17.30
2018-09-18T06:22:37.976Z,17.50
2018-09-18T06:25:04.974Z,17.60
2018-09-18T06:30:00.087Z,17.80
2018-09-18T06:32:27.082Z,18.00
2018-09-18T06:34:54.092Z,18.20
2018-09-18T06:37:21.151Z,18.20
2018-09-18T06:39:48.162Z,18.40
2018-09-18T06:42:15.217Z,18.50
2018-09-18T06:44:42.263Z,18.50
2018-09-18T06:47:09.256Z,18.70
2018-09-18T06:49:36.260Z,18.60
2018-09-18T06:52:03.305Z,18.40
2018-09-18T06:56:57.378Z,19.00
2018-09-18T06:59:24.407Z,19.30
2018-09-18T07:01:51.400Z,19.40
2018-09-18T07:04:18.406Z,19.60
2018-09-18T07:06:45.431Z,19.60
2018-09-18T07:11:50.949Z,19.60
2018-09-18T07:14:17.944Z,19.60
2018-09-18T07:16:44.952Z,19.80
2018-09-18T07:19:11.985Z,20.10
2018-09-18T07:21:38.972Z,19.70
2018-09-18T07:24:05.975Z,20.10
2018-09-18T07:26:34.000Z,20.30
2018-09-18T07:29:00.997Z,20.40
2018-09-18T07:31:27.986Z,20.70
2018-09-18T07:33:55.107Z,20.60
2018-09-18T07:36:22.003Z,20.60
2018-09-18T07:38:48.992Z,20.80
2018-09-18T07:41:16.028Z,21.00
2018-09-18T07:43:43.015Z,20.70
2018-09-18T07:46:10.001Z,20.80
2018-09-18T07:48:37.020Z,20.30
2018-09-18T07:51:04.004Z,20.60
2018-09-18T07:53:31.010Z,21.00
2018-09-18T07:55:58.048Z,21.20
2018-09-18T07:58:25.054Z,21.40
2018-09-18T08:00:52.048Z,21.40
2018-09-18T08:03:19.083Z,21.50
2018-09-18T08:05:46.070Z,21.90
2018-09-18T08:08:13.078Z,21.80
2018-09-18T08:10:40.095Z,21.80
2018-09-18T08:13:07.085Z,22.00
2018-09-18T08:15:34.072Z,21.80
2018-09-18T08:18:01.117Z,21.70
2018-09-18T08:20:28.106Z,21.70
2018-09-18T08:22:55.108Z,22.10
2018-09-18T08:25:22.225Z,21.50
2018-09-18T08:30:27.655Z,21.40
2018-09-18T08:32:54.695Z,21.90
2018-09-18T08:35:21.645Z,21.90
2018-09-18T08:37:48.693Z,22.50
2018-09-18T08:40:15.690Z,22.70
2018-09-18T08:42:43.515Z,23.00
2018-09-18T08:45:10.553Z,23.00
2018-09-18T08:50:04.615Z,23.20
2018-09-18T08:52:32.513Z,23.50
2018-09-18T08:54:59.505Z,23.50
2018-09-18T08:57:26.508Z,23.60
2018-09-18T08:59:53.576Z,23.50
2018-09-18T09:02:21.377Z,23.70
2018-09-18T09:04:48.319Z,24.00
2018-09-18T09:07:15.385Z,23.80
2018-09-18T09:09:42.370Z,23.60
2018-09-18T09:12:09.365Z,23.40
2018-09-18T09:14:37.219Z,23.00
2018-09-18T09:17:05.115Z,22.70
2018-09-18T09:19:32.130Z,23.00
2018-09-18T09:21:59.219Z,22.80
2018-09-18T09:24:26.872Z,23.00
2018-09-18T09:26:53.951Z,23.50
2018-09-18T09:29:20.878Z,23.50
2018-09-18T09:31:47.867Z,23.90
2018-09-18T09:34:14.854Z,23.70
2018-09-18T09:36:41.909Z,24.00
2018-09-18T09:39:09.702Z,24.30
2018-09-18T09:41:36.700Z,24.20
2018-09-18T09:44:03.735Z,24.30
2018-09-18T09:49:11.220Z,25.20
2018-09-18T09:51:38.263Z,24.90
2018-09-18T09:54:05.203Z,24.80
2018-09-18T09:56:32.252Z,25.30
2018-09-18T09:58:59.246Z,25.10
2018-09-18T10:01:26.345Z,24.80
2018-09-18T10:03:53.376Z,25.30
2018-09-18T10:06:20.378Z,25.60
2018-09-18T10:08:47.381Z,25.80
2018-09-18T10:11:14.416Z,26.20
2018-09-18T10:13:41.403Z,25.90
2018-09-18T10:16:08.403Z,25.90
2018-09-18T10:18:35.431Z,26.40
2018-09-18T10:21:02.434Z,25.80
2018-09-18T10:23:29.424Z,26.00
2018-09-18T10:25:56.491Z,26.20
2018-09-18T10:28:24.389Z,25.70
2018-09-18T10:30:51.382Z,25.80
2018-09-18T10:33:18.402Z,26.10
2018-09-18T10:35:45.423Z,26.30
2018-09-18T10:38:12.380Z,26.20
2018-09-18T10:40:39.421Z,26.20
2018-09-18T10:43:07.370Z,26.10
2018-09-18T10:45:34.362Z,25.40
2018-09-18T10:50:28.452Z,26.00
2018-09-18T10:52:55.447Z,25.70
2018-09-18T10:55:22.516Z,25.20
2018-09-18T10:57:49.474Z,25.60
2018-09-18T11:02:43.570Z,24.80
2018-09-18T11:05:10.580Z,24.70
2018-09-18T11:10:16.119Z,25.00
2018-09-18T11:12:43.080Z,25.00
2018-09-18T11:15:10.920Z,24.90
2018-09-18T11:17:37.955Z,24.70
2018-09-18T11:20:04.944Z,24.20
2018-09-18T11:22:31.939Z,24.50
2018-09-18T11:24:59.051Z,24.60
2018-09-18T11:27:25.974Z,24.10
2018-09-18T11:29:52.958Z,24.20
2018-09-18T11:32:20.029Z,24.00
2018-09-18T11:34:47.004Z,24.00
2018-09-18T11:37:13.974Z,24.30
2018-09-18T11:39:41.107Z,24.00
2018-09-18T11:42:08.090Z,23.90
2018-09-18T11:44:35.907Z,24.00
2018-09-18T11:47:02.975Z,24.00
2018-09-18T11:49:29.962Z,24.10
2018-09-18T11:54:28.116Z,24.30
2018-09-18T11:56:55.201Z,24.10
2018-09-18T11:59:22.111Z,24.30
2018-09-18T12:01:49.993Z,24.40
2018-09-18T12:04:16.985Z,24.10
2018-09-18T12:06:43.978Z,24.30
2018-09-18T12:09:11.119Z,24.70
2018-09-18T12:11:38.031Z,24.80
2018-09-18T12:16:43.320Z,24.70
2018-09-18T12:19:10.316Z,24.80
2018-09-18T12:21:37.309Z,25.00
2018-09-18T12:24:05.236Z,25.00
2018-09-18T12:26:32.226Z,25.20
2018-09-18T12:29:00.074Z,25.10
2018-09-18T12:36:21.307Z,25.20
2018-09-18T12:38:48.353Z,25.20
2018-09-18T12:41:15.389Z,25.30
2018-09-18T12:43:42.349Z,25.20
2018-09-18T12:51:03.563Z,24.90
2018-09-18T12:53:30.631Z,24.80
2018-09-18T12:58:24.793Z,24.90
2018-09-18T13:00:51.737Z,24.80
2018-09-18T13:03:18.736Z,25.00
2018-09-18T13:05:46.565Z,24.90
2018-09-18T13:08:13.670Z,24.90
2018-09-18T13:10:40.645Z,25.30
2018-09-18T13:13:07.631Z,25.30
2018-09-18T13:15:34.673Z,25.50
2018-09-18T13:20:29.052Z,25.60
2018-09-18T13:22:56.107Z,25.50
2018-09-18T13:27:50.256Z,24.80
2018-09-18T13:30:17.244Z,25.10
2018-09-18T13:32:44.302Z,25.10
2018-09-18T13:35:11.231Z,25.10
2018-09-18T13:37:38.314Z,25.50
2018-09-18T13:42:44.810Z,25.60
2018-09-18T13:45:12.750Z,25.50
2018-09-18T13:47:39.739Z,25.30
2018-09-18T13:50:07.635Z,25.50
2018-09-18T13:52:34.585Z,25.40
2018-09-18T13:55:01.576Z,25.60
2018-09-18T13:57:28.680Z,25.60
2018-09-18T13:59:55.626Z,25.70
2018-09-18T14:04:50.612Z,25.80
2018-09-18T14:07:17.587Z,25.90
2018-09-18T14:09:44.583Z,26.00
2018-09-18T14:12:12.631Z,26.20
2018-09-18T14:14:39.647Z,26.30
2018-09-18T14:17:06.605Z,26.40
2018-09-18T14:19:33.677Z,26.40
2018-09-18T14:22:00.664Z,26.40
2018-09-18T14:24:28.484Z,26.30
2018-09-18T14:26:55.531Z,26.30
2018-09-18T14:29:22.526Z,26.40
2018-09-18T14:31:49.534Z,26.50
2018-09-18T14:34:16.578Z,26.50
2018-09-18T14:36:44.391Z,26.50
2018-09-18T14:41:38.525Z,26.80
2018-09-18T14:44:05.517Z,26.60
2018-09-18T14:48:59.637Z,26.80
2018-09-18T14:51:26.636Z,26.80
2018-09-18T14:53:53.623Z,26.60
2018-09-18T14:56:20.657Z,26.30
2018-09-18T15:03:53.249Z,26.30
2018-09-18T15:06:20.242Z,26.20
2018-09-18T15:08:47.231Z,26.10
2018-09-18T15:11:14.278Z,25.90
2018-09-18T15:13:41.325Z,26.00
2018-09-18T15:16:08.334Z,25.80
2018-09-18T15:18:35.396Z,25.80
2018-09-18T15:21:02.391Z,25.30
2018-09-18T15:23:29.396Z,25.20
2018-09-18T15:25:57.380Z,24.80
2018-09-18T15:28:24.373Z,24.50
2018-09-18T15:30:51.367Z,24.40
2018-09-18T15:33:18.433Z,24.30
2018-09-18T15:35:45.429Z,24.20
2018-09-18T15:38:12.440Z,24.30
2018-09-18T15:40:39.484Z,24.00
2018-09-18T15:43:07.443Z,23.80
2018-09-18T15:45:34.432Z,23.80
2018-09-18T15:48:01.483Z,23.60
2018-09-18T15:50:28.473Z,23.60
2018-09-18T15:52:56.305Z,23.30
2018-09-18T15:55:23.451Z,23.30
2018-09-18T15:57:51.363Z,23.10
2018-09-18T16:00:18.291Z,22.80
2018-09-18T16:02:45.342Z,22.50
2018-09-18T16:05:12.338Z,22.30
2018-09-18T16:07:39.353Z,21.90
2018-09-18T16:10:06.813Z,21.80
2018-09-18T16:12:33.421Z,21.60
2018-09-18T16:15:00.457Z,21.60
2018-09-18T16:17:27.482Z,21.70
2018-09-18T16:19:54.458Z,21.50
2018-09-18T16:24:59.971Z,21.30
2018-09-18T16:27:26.957Z,21.20
2018-09-18T16:32:21.100Z,20.40
2018-09-18T16:34:48.092Z,20.10
2018-09-18T16:39:42.226Z,19.30
2018-09-18T16:42:10.092Z,19.20
2018-09-18T16:44:37.108Z,19.10
2018-09-18T16:47:04.197Z,18.90
2018-09-18T16:49:32.169Z,18.60
2018-09-18T16:51:59.999Z,18.60
2018-09-18T16:54:27.145Z,18.80
2018-09-18T16:56:55.012Z,18.90
2018-09-18T16:59:22.043Z,19.10
2018-09-18T17:01:50.008Z,18.80
2018-09-18T17:04:17.023Z,18.70
2018-09-18T17:06:44.020Z,18.60
2018-09-18T17:09:11.103Z,18.80
2018-09-18T17:11:38.107Z,18.80
2018-09-18T17:14:05.268Z,19.00
2018-09-18T17:16:32.414Z,18.70
2018-09-18T17:18:59.318Z,18.90
2018-09-18T17:21:26.335Z,18.70
2018-09-18T17:23:53.430Z,18.60
2018-09-18T17:26:20.434Z,18.50
2018-09-18T17:28:47.605Z,18.40
2018-09-18T17:31:14.520Z,18.40
2018-09-18T17:33:41.536Z,18.50
2018-09-18T17:36:08.549Z,18.80
2018-09-18T17:38:36.549Z,18.70
2018-09-18T17:43:42.260Z,18.70
2018-09-18T17:46:10.243Z,18.90
2018-09-18T17:48:37.247Z,18.90
2018-09-18T17:51:04.328Z,18.60
2018-09-18T17:53:31.391Z,18.40
2018-09-18T17:55:58.333Z,18.40
2018-09-18T17:58:25.399Z,18.40
2018-09-18T18:00:52.405Z,18.70
2018-09-18T18:05:47.441Z,18.80
2018-09-18T18:08:14.489Z,19.00
2018-09-18T18:10:42.408Z,19.00
2018-09-18T18:13:09.371Z,18.90
2018-09-18T18:15:36.361Z,18.90
2018-09-18T18:18:04.289Z,18.80
2018-09-18T18:22:58.470Z,18.70
2018-09-18T18:25:25.474Z,18.40
2018-09-18T18:27:52.556Z,18.30
2018-09-18T18:30:19.568Z,18.30
2018-09-18T18:32:46.604Z,18.40
2018-09-18T18:35:14.537Z,18.30
2018-09-18T18:37:42.406Z,18.20
2018-09-18T18:45:15.103Z,18.00
2018-09-18T18:47:42.240Z,18.20
2018-09-18T18:50:09.199Z,18.20
2018-09-18T18:52:36.212Z,18.40
2018-09-18T18:55:03.344Z,18.40
2018-09-18T18:57:30.358Z,18.30
2018-09-18T18:59:57.436Z,17.90
2018-09-18T19:02:24.510Z,17.70
2018-09-18T19:04:51.531Z,17.50
2018-09-18T19:07:18.547Z,17.50
2018-09-18T19:09:46.600Z,17.50
2018-09-18T19:12:13.616Z,17.50
2018-09-18T19:14:40.596Z,17.60
2018-09-18T19:17:07.660Z,17.50
2018-09-18T19:19:34.690Z,17.50
2018-09-18T19:22:01.693Z,17.50
2018-09-18T19:24:28.800Z,17.60
2018-09-18T19:26:56.543Z,17.60
2018-09-18T19:29:23.538Z,17.60
2018-09-18T19:31:50.634Z,17.50
2018-09-18T19:34:17.668Z,17.60
2018-09-18T19:36:45.500Z,17.80
2018-09-18T19:39:12.644Z,17.80
2018-09-18T19:41:40.632Z,17.80
2018-09-18T19:44:07.653Z,18.00
2018-09-18T19:46:34.812Z,18.00
2018-09-18T19:49:01.885Z,18.00
2018-09-18T19:51:28.908Z,18.00
2018-09-18T19:53:55.960Z,18.10
2018-09-18T19:56:22.966Z,18.10
2018-09-18T20:01:26.812Z,17.90
2018-09-18T20:03:54.251Z,17.90
2018-09-18T20:06:22.518Z,17.90
2018-09-18T20:08:55.116Z,17.90
2018-09-18T20:11:22.851Z,17.70
2018-09-18T20:13:50.385Z,17.80
2018-09-18T20:16:17.858Z,17.80
2018-09-18T20:18:45.261Z,17.70
2018-09-18T20:23:40.915Z,17.80
2018-09-18T20:26:09.512Z,17.80
2018-09-18T20:28:37.152Z,17.80
2018-09-18T20:31:04.734Z,17.70
2018-09-18T20:33:32.379Z,17.60
2018-09-18T20:36:05.143Z,17.60
2018-09-18T20:38:32.603Z,17.50
2018-09-18T20:41:00.138Z,17.50
2018-09-18T20:43:28.607Z,17.50
2018-09-18T20:45:56.914Z,17.40
2018-09-18T20:48:25.556Z,17.40
2018-09-18T20:50:53.967Z,17.40
2018-09-18T20:53:21.478Z,17.50
2018-09-18T20:55:49.119Z,17.50
2018-09-18T21:00:53.444Z,17.30
2018-09-18T21:03:20.894Z,17.30
2018-09-18T21:08:20.798Z,17.20
2018-09-18T21:10:49.253Z,17.20
2018-09-18T21:13:17.702Z,17.20
2018-09-18T21:15:45.071Z,17.30
2018-09-18T21:18:13.444Z,17.20
2018-09-18T21:20:41.217Z,17.30
2018-09-18T21:23:12.409Z,17.40
2018-09-18T21:25:39.796Z,17.30
2018-09-18T21:28:09.271Z,17.30
2018-09-18T21:30:37.777Z,17.20
2018-09-18T21:35:44.329Z,17.30
2018-09-18T21:38:11.767Z,17.30
2018-09-18T21:40:39.853Z,17.20
2018-09-18T21:43:08.541Z,17.00
2018-09-18T21:50:42.823Z,16.70
2018-09-18T21:53:09.868Z,16.70
2018-09-18T21:55:36.921Z,16.50
2018-09-18T21:58:08.271Z,16.50
2018-09-18T22:03:14.291Z,16.50
2018-09-18T22:08:08.413Z,16.40
2018-09-18T22:10:35.481Z,16.30
2018-09-18T22:13:02.500Z,16.10
2018-09-18T22:15:29.563Z,16.00
2018-09-18T22:17:57.016Z,16.10
2018-09-18T22:20:24.755Z,16.10
2018-09-18T22:22:52.631Z,16.00
2018-09-18T22:25:19.794Z,15.90
2018-09-18T22:27:46.866Z,16.00
2018-09-18T22:30:13.990Z,15.90
2018-09-18T22:32:41.075Z,16.00
2018-09-18T22:35:08.129Z,15.90
2018-09-18T22:37:35.180Z,16.00
2018-09-18T22:40:02.318Z,16.10
2018-09-18T22:42:29.346Z,16.00
2018-09-18T22:44:57.225Z,15.90
2018-09-18T22:47:24.303Z,16.00
2018-09-18T22:49:51.348Z,15.90
2018-09-18T22:54:45.565Z,16.00
2018-09-18T22:57:14.193Z,16.20
2018-09-18T22:59:41.200Z,16.20
2018-09-18T23:02:08.296Z,16.00
2018-09-18T23:04:35.347Z,15.90
2018-09-18T23:07:02.995Z,15.90
2018-09-18T23:09:30.099Z,15.90
2018-09-18T23:11:57.156Z,16.00
2018-09-18T23:14:24.193Z,16.10
2018-09-18T23:19:29.789Z,16.30
2018-09-18T23:21:56.863Z,16.30
2018-09-18T23:26:51.012Z,16.20
2018-09-18T23:29:18.161Z,16.10
2018-09-18T23:31:45.726Z,16.10
2018-09-18T23:34:12.761Z,16.10
2018-09-18T23:36:39.834Z,16.10
2018-09-18T23:39:07.693Z,16.10
2018-09-18T23:41:34.721Z,16.00
2018-09-18T23:44:01.824Z,16.10
2018-09-18T23:51:23.165Z,15.80
2018-09-18T23:53:51.227Z,15.60
2018-09-18T23:56:18.383Z,15.50
2018-09-18T23:58:46.411Z,15.50
